Time;durP1;ratioP1;P1;durP2;ratioP2;P2;SDS_P1;SDS_P2;PMS_P1;PMS_P2;Temp;Humidity;BMP_temperature;BMP_pressure;BME280_temperature;BME280_humidity;BME280_pressure;Samples;Min_cycle;Max_cycle;Signal;HPM_P1;HPM_P2
2022/06/15 00:02:48;;;;;;;5.53;2.95;;;18.20;85.60;;;;;;6230594;28;20056;-83
2022/06/15 00:05:50;;;;;;;8.38;2.58;;;18.10;86.30;;;;;;6230489;28;20056;-83
2022/06/15 00:08:56;;;;;;;5.53;2.30;;;18.10;86.80;;;;;;6229228;28;20053;-82
2022/06/15 00:11:58;;;;;;;4.63;2.40;;;18.00;87.40;;;;;;6230169;28;20559;-83
2022/06/15 00:14:59;;;;;;;5.28;2.42;;;17.90;87.70;;;;;;6231096;28;20484;-82
2022/06/15 00:18:02;;;;;;;6.07;2.20;;;17.90;87.90;;;;;;6227976;28;20060;-82
2022/06/15 00:21:05;;;;;;;4.28;2.25;;;17.80;88.40;;;;;;6230179;28;20053;-82
2022/06/15 00:24:08;;;;;;;4.75;2.88;;;17.80;88.60;;;;;;6230166;28;20401;-83
2022/06/15 00:27:10;;;;;;;4.57;2.38;;;17.70;89.00;;;;;;6235724;28;20423;-82
2022/06/15 00:30:13;;;;;;;5.78;2.88;;;17.70;89.40;;;;;;6234878;28;20056;-83
2022/06/15 00:33:15;;;;;;;6.60;2.92;;;17.60;89.70;;;;;;6235391;28;20053;-83
2022/06/15 00:36:19;;;;;;;5.05;2.22;;;17.60;89.50;;;;;;6236057;28;20038;-82
2022/06/15 00:39:22;;;;;;;5.25;2.42;;;17.50;89.60;;;;;;6235008;28;20046;-82
2022/06/15 00:42:28;;;;;;;11.55;2.58;;;17.50;89.70;;;;;;6234911;28;20052;-83
2022/06/15 00:45:31;;;;;;;5.30;2.58;;;17.40;90.10;;;;;;6234289;28;20419;-83
2022/06/15 00:48:33;;;;;;;4.97;3.05;;;17.30;90.00;;;;;;6234907;28;20053;-83
2022/06/15 00:51:35;;;;;;;4.47;2.78;;;17.40;90.20;;;;;;6234080;28;20590;-83
2022/06/15 00:54:39;;;;;;;7.13;2.40;;;17.40;90.60;;;;;;6233285;28;20113;-84
2022/06/15 00:57:41;;;;;;;4.55;2.55;;;17.30;90.70;;;;;;6232997;28;20050;-84
2022/06/15 01:00:43;;;;;;;4.32;2.45;;;17.30;90.70;;;;;;6233088;28;20042;-83
2022/06/15 01:03:46;;;;;;;10.35;2.60;;;17.20;91.00;;;;;;6234533;28;20056;-82
2022/06/15 01:06:57;;;;;;;4.70;2.47;;;17.20;91.40;;;;;;6233831;28;20484;-83
2022/06/15 01:10:10;;;;;;;6.18;2.83;;;17.10;91.70;;;;;;6233716;28;20041;-83
2022/06/15 01:13:27;;;;;;;4.22;2.08;;;17.00;91.90;;;;;;6233861;28;20041;-83
2022/06/15 01:16:37;;;;;;;4.70;2.53;;;16.90;91.90;;;;;;6234828;28;20071;-83
2022/06/15 01:19:59;;;;;;;6.55;2.58;;;16.80;92.10;;;;;;6235983;28;20042;-83
2022/06/15 01:23:29;;;;;;;4.13;3.20;;;16.80;92.30;;;;;;6235767;28;20045;-83
2022/06/15 01:27:05;;;;;;;5.15;3.05;;;16.70;92.30;;;;;;6236217;28;20049;-82
2022/06/15 01:30:18;;;;;;;5.93;2.67;;;16.60;92.40;;;;;;6230690;28;20093;-82
2022/06/15 01:33:29;;;;;;;6.22;3.08;;;16.50;92.60;;;;;;6229818;28;20060;-83
2022/06/15 01:36:39;;;;;;;4.95;2.92;;;16.40;92.80;;;;;;6230618;28;20050;-83
2022/06/15 01:39:46;;;;;;;6.45;2.45;;;16.30;93.00;;;;;;6230732;28;20046;-83
2022/06/15 01:43:04;;;;;;;5.05;3.25;;;16.20;93.30;;;;;;6230057;28;20060;-82
2022/06/15 01:46:08;;;;;;;6.32;2.30;;;16.10;93.60;;;;;;6230538;28;20056;-83
2022/06/15 01:49:20;;;;;;;5.72;3.08;;;16.10;93.70;;;;;;6230039;28;20046;-83
2022/06/15 01:52:25;;;;;;;6.50;2.80;;;16.00;93.80;;;;;;6229617;28;20534;-82
2022/06/15 01:55:31;;;;;;;5.32;2.78;;;16.00;93.90;;;;;;6230514;28;20049;-82
2022/06/15 01:58:35;;;;;;;5.13;2.85;;;15.80;93.90;;;;;;6229795;28;20042;-83
2022/06/15 02:01:44;;;;;;;3.70;2.60;;;15.90;94.10;;;;;;6229572;28;20399;-82
2022/06/15 02:04:58;;;;;;;6.70;2.90;;;15.90;94.10;;;;;;6229103;28;20064;-82
2022/06/15 02:08:08;;;;;;;4.93;3.17;;;15.90;94.20;;;;;;6229226;28;20058;-83
2022/06/15 02:11:15;;;;;;;7.53;3.10;;;15.80;94.20;;;;;;6229668;28;20459;-83
2022/06/15 02:14:21;;;;;;;5.03;2.95;;;15.80;94.30;;;;;;6234020;28;20496;-82
2022/06/15 02:17:28;;;;;;;7.93;3.45;;;15.70;94.50;;;;;;6233786;28;20070;-83
2022/06/15 02:20:33;;;;;;;8.05;3.08;;;15.60;94.60;;;;;;6231316;28;20060;-82
2022/06/15 02:23:39;;;;;;;4.47;2.95;;;15.60;94.70;;;;;;6231815;28;20538;-82
2022/06/15 02:26:42;;;;;;;6.43;3.30;;;15.60;94.50;;;;;;6230614;28;20042;-82
2022/06/15 02:29:47;;;;;;;6.07;2.95;;;15.50;94.60;;;;;;6229312;28;20052;-83
2022/06/15 02:32:51;;;;;;;5.65;3.72;;;15.40;95.00;;;;;;6230297;28;20448;-83
2022/06/15 02:35:53;;;;;;;7.07;2.75;;;15.40;95.20;;;;;;6230502;28;20058;-81
2022/06/15 02:38:55;;;;;;;5.30;3.85;;;15.40;95.10;;;;;;6230282;28;20141;-82
2022/06/15 02:41:58;;;;;;;11.07;5.90;;;15.30;95.00;;;;;;6229763;28;20076;-83
2022/06/15 02:45:04;;;;;;;7.50;2.72;;;15.30;95.20;;;;;;6228327;28;20423;-81
2022/06/15 02:48:09;;;;;;;6.43;3.50;;;15.20;95.30;;;;;;6229232;28;20097;-81
2022/06/15 02:51:15;;;;;;;6.63;3.33;;;15.20;95.30;;;;;;6229926;28;20072;-82
2022/06/15 02:54:22;;;;;;;5.53;3.17;;;15.20;95.40;;;;;;6229938;28;20304;-82
2022/06/15 02:57:24;;;;;;;7.50;3.50;;;15.20;95.50;;;;;;6227998;28;20399;-81
2022/06/15 03:00:26;;;;;;;6.82;3.25;;;15.20;95.50;;;;;;6228784;28;20052;-83
2022/06/15 03:03:30;;;;;;;5.30;3.40;;;15.10;95.50;;;;;;6228844;28;20058;-83
2022/06/15 03:06:31;;;;;;;4.75;3.00;;;15.10;95.60;;;;;;6229166;28;20054;-83
2022/06/15 03:09:33;;;;;;;5.97;3.10;;;15.00;95.60;;;;;;6227748;28;20046;-82
2022/06/15 03:12:35;;;;;;;10.60;3.15;;;15.10;95.60;;;;;;6228508;28;20046;-83
2022/06/15 03:15:37;;;;;;;10.18;4.18;;;15.10;95.50;;;;;;6228146;28;20049;-82
2022/06/15 03:18:40;;;;;;;5.60;3.53;;;15.10;95.70;;;;;;6228519;28;20050;-82
2022/06/15 03:21:42;;;;;;;4.82;3.38;;;15.00;95.70;;;;;;6227579;28;20049;-83
2022/06/15 03:24:44;;;;;;;5.57;3.17;;;15.00;95.80;;;;;;6229563;28;20056;-82
2022/06/15 03:27:46;;;;;;;6.10;3.42;;;15.00;95.90;;;;;;6229045;28;20060;-80
2022/06/15 03:30:47;;;;;;;9.20;3.70;;;15.00;95.80;;;;;;6227393;28;20050;-80
2022/06/15 03:33:52;;;;;;;5.68;3.63;;;15.00;95.90;;;;;;6229099;28;20050;-82
2022/06/15 03:36:53;;;;;;;5.03;3.15;;;15.00;95.90;;;;;;6229462;28;20053;-83
2022/06/15 03:39:55;;;;;;;7.15;4.18;;;15.10;96.00;;;;;;6227936;28;20496;-82
2022/06/15 03:42:57;;;;;;;7.78;3.65;;;15.20;96.10;;;;;;6229752;28;20046;-81
2022/06/15 03:45:59;;;;;;;7.22;2.83;;;15.30;96.30;;;;;;6228056;28;20046;-81
2022/06/15 03:49:02;;;;;;;4.35;2.80;;;15.40;95.90;;;;;;6227347;28;20050;-82
2022/06/15 03:52:04;;;;;;;5.60;4.00;;;15.40;95.70;;;;;;6227778;28;20096;-82
2022/06/15 03:55:07;;;;;;;6.03;3.35;;;15.50;95.60;;;;;;6227217;28;20072;-83
2022/06/15 03:58:12;;;;;;;8.85;3.60;;;15.40;95.30;;;;;;6226985;28;20053;-81
2022/06/15 04:01:14;;;;;;;16.35;7.30;;;15.40;95.40;;;;;;6233194;28;20396;-82
2022/06/15 04:04:17;;;;;;;5.15;2.90;;;15.30;95.50;;;;;;6235321;28;20065;-81
2022/06/15 04:10:38;;;;;;;4.72;2.60;;;15.40;95.40;;;;;;6204729;28;20047;-80
2022/06/15 04:13:40;;;;;;;4.65;2.92;;;15.60;95.10;;;;;;6204785;28;20057;-80
2022/06/15 04:16:42;;;;;;;6.85;3.03;;;16.10;94.80;;;;;;6205142;28;20513;-79
2022/06/15 04:20:31;;;;;;;9.65;3.33;;;17.30;92.90;;;;;;6205276;28;20053;-79
2022/06/15 04:23:10;;;;;;;7.72;3.20;;;18.50;90.90;;;;;;6204629;28;20416;-79
2022/06/15 04:26:11;;;;;;;3.83;2.40;;;18.70;90.10;;;;;;6204202;28;20054;-79
2022/06/15 04:29:13;;;;;;;6.25;2.60;;;18.90;89.70;;;;;;6203588;28;20042;-80
2022/06/15 04:32:15;;;;;;;4.25;2.75;;;19.20;88.20;;;;;;6204621;28;20136;-80
2022/06/15 04:35:19;;;;;;;5.63;2.42;;;19.20;87.70;;;;;;6204563;28;20053;-80
2022/06/15 04:38:20;;;;;;;7.70;3.00;;;20.10;85.60;;;;;;6203964;28;20046;-80
2022/06/15 04:41:22;;;;;;;3.65;2.50;;;21.90;79.60;;;;;;6203139;28;20061;-79
2022/06/15 04:44:24;;;;;;;3.50;2.15;;;23.70;73.60;;;;;;6203472;28;20046;-80
2022/06/15 04:47:25;;;;;;;3.03;2.10;;;25.40;68.00;;;;;;6203500;28;20058;-80
2022/06/15 04:50:29;;;;;;;5.43;1.88;;;26.70;62.80;;;;;;6202796;28;20053;-80
2022/06/15 04:53:31;;;;;;;4.07;1.77;;;27.90;58.20;;;;;;6202905;28;20066;-79
2022/06/15 04:56:33;;;;;;;3.97;2.00;;;28.90;54.40;;;;;;6203259;28;20057;-80
2022/06/15 04:59:35;;;;;;;5.63;2.13;;;29.90;51.60;;;;;;6202909;28;20054;-80
2022/06/15 05:02:36;;;;;;;3.70;2.38;;;30.70;48.70;;;;;;6202358;28;20053;-80
2022/06/15 05:05:39;;;;;;;4.45;2.47;;;31.40;46.60;;;;;;6203768;28;20051;-80
2022/06/15 05:08:41;;;;;;;3.28;2.00;;;32.10;44.90;;;;;;6203883;28;20050;-81
2022/06/15 05:11:43;;;;;;;3.13;2.03;;;32.80;43.40;;;;;;6203950;28;20046;-81
2022/06/15 05:14:47;;;;;;;4.25;1.90;;;33.50;41.80;;;;;;6203653;28;20065;-81
2022/06/15 05:17:50;;;;;;;3.67;2.05;;;34.20;40.70;;;;;;6203735;28;20042;-81
2022/06/15 05:20:53;;;;;;;3.13;1.77;;;34.80;39.30;;;;;;6204554;28;20052;-81
2022/06/15 05:23:55;;;;;;;3.80;1.92;;;35.50;38.00;;;;;;6204632;28;20061;-81
2022/06/15 05:26:57;;;;;;;4.20;1.80;;;36.30;36.90;;;;;;6204564;28;20054;-81
2022/06/15 05:29:59;;;;;;;3.58;1.77;;;37.00;35.80;;;;;;6203654;28;20039;-81
2022/06/15 05:33:01;;;;;;;2.95;1.52;;;37.20;35.00;;;;;;6203544;28;20057;-81
2022/06/15 05:36:07;;;;;;;5.47;1.95;;;37.50;34.30;;;;;;6203979;28;20057;-81
2022/06/15 05:39:10;;;;;;;4.22;1.65;;;37.90;33.90;;;;;;6203947;28;20141;-81
2022/06/15 05:42:12;;;;;;;6.55;1.92;;;38.40;33.20;;;;;;6203855;28;20057;-81
2022/06/15 05:45:14;;;;;;;7.13;2.20;;;39.00;32.30;;;;;;6204500;28;20504;-81
2022/06/15 05:48:16;;;;;;;4.00;1.10;;;40.10;31.20;;;;;;6204022;28;20050;-81
2022/06/15 05:51:19;;;;;;;7.00;1.75;;;41.20;30.00;;;;;;6204342;28;20046;-81
2022/06/15 05:54:21;;;;;;;3.90;1.48;;;42.20;29.30;;;;;;6204315;28;20516;-81
2022/06/15 05:57:24;;;;;;;4.63;1.30;;;42.70;28.90;;;;;;6203996;28;20129;-81
2022/06/15 06:00:26;;;;;;;3.15;1.42;;;43.20;28.40;;;;;;6203474;28;20061;-81
2022/06/15 06:03:28;;;;;;;2.03;1.20;;;43.60;28.30;;;;;;6204437;28;20056;-81
2022/06/15 06:06:32;;;;;;;4.05;1.33;;;43.90;28.00;;;;;;6202491;28;20507;-81
2022/06/15 06:09:34;;;;;;;7.20;2.10;;;44.30;27.60;;;;;;6202700;28;20038;-81
2022/06/15 06:12:36;;;;;;;5.70;1.42;;;44.60;27.30;;;;;;6202877;28;20057;-81
2022/06/15 06:15:37;;;;;;;10.88;1.65;;;45.10;27.10;;;;;;6202664;28;20475;-81
2022/06/15 06:18:39;;;;;;;5.10;1.42;;;45.30;26.90;;;;;;6202176;28;20515;-81
2022/06/15 06:21:43;;;;;;;3.70;1.88;;;45.70;26.50;;;;;;6201706;28;20073;-81
2022/06/15 06:24:45;;;;;;;6.20;1.55;;;46.00;26.30;;;;;;6202155;28;20046;-81
2022/06/15 06:27:46;;;;;;;2.75;1.50;;;46.20;26.10;;;;;;6202244;28;20053;-81
2022/06/15 06:30:48;;;;;;;4.80;2.03;;;46.20;26.10;;;;;;6201653;28;20043;-81
2022/06/15 06:33:50;;;;;;;5.82;2.38;;;46.20;26.10;;;;;;6202073;28;20422;-81
2022/06/15 06:36:54;;;;;;;8.13;1.85;;;46.10;26.00;;;;;;6201772;28;20070;-81
2022/06/15 06:39:56;;;;;;;5.10;1.75;;;45.90;26.10;;;;;;6202194;28;20053;-81
2022/06/15 06:42:58;;;;;;;8.43;1.75;;;45.80;26.20;;;;;;6202400;28;20050;-81
2022/06/15 06:46:00;;;;;;;4.97;1.50;;;45.50;26.30;;;;;;6201347;28;20054;-81
2022/06/15 06:49:02;;;;;;;3.80;1.65;;;45.30;26.50;;;;;;6200471;28;20046;-81
2022/06/15 06:52:05;;;;;;;6.50;1.83;;;44.90;26.40;;;;;;6201416;28;20053;-81
2022/06/15 06:55:08;;;;;;;3.15;1.48;;;44.50;26.50;;;;;;6201287;28;20053;-81
2022/06/15 06:58:10;;;;;;;4.68;1.50;;;44.10;26.50;;;;;;6201216;28;20061;-81
2022/06/15 07:01:11;;;;;;;5.93;1.80;;;44.00;26.70;;;;;;6201186;28;20052;-81
2022/06/15 07:04:14;;;;;;;4.32;1.52;;;44.10;26.80;;;;;;6201231;28;20134;-81
2022/06/15 07:07:17;;;;;;;7.80;1.40;;;44.30;26.60;;;;;;6201349;28;20499;-81
2022/06/15 07:10:19;;;;;;;5.75;1.38;;;44.70;26.60;;;;;;6200154;28;20056;-81
2022/06/15 07:13:21;;;;;;;5.18;1.40;;;45.00;26.30;;;;;;6200580;28;20046;-81
2022/06/15 07:16:23;;;;;;;4.13;1.52;;;45.50;26.10;;;;;;6201528;28;20500;-81
2022/06/15 07:19:25;;;;;;;4.95;1.67;;;45.60;26.10;;;;;;6201612;28;20050;-81
2022/06/15 07:22:28;;;;;;;4.95;1.50;;;45.80;25.90;;;;;;6201097;28;20431;-81
2022/06/15 07:25:31;;;;;;;5.85;1.35;;;45.70;26.10;;;;;;6201185;28;20532;-81
2022/06/15 07:28:33;;;;;;;3.08;1.52;;;45.70;26.10;;;;;;6201528;28;20050;-81
2022/06/15 07:31:40;;;;;;;5.68;1.55;;;46.00;26.00;;;;;;6201606;28;20051;-81
2022/06/15 07:34:43;;;;;;;5.47;1.88;;;46.10;25.90;;;;;;6209750;28;20060;-81
2022/06/15 07:37:46;;;;;;;4.45;1.50;;;46.40;26.00;;;;;;6212960;28;20056;-82
2022/06/15 07:40:48;;;;;;;4.28;1.30;;;46.60;25.80;;;;;;6212681;28;20046;-82
2022/06/15 07:43:50;;;;;;;4.65;1.33;;;46.70;25.70;;;;;;6214356;28;20054;-82
2022/06/15 07:49:54;;;;;;;5.15;1.50;;;46.80;25.60;;;;;;6207952;28;20050;-81
2022/06/15 07:50:15;;;;;;;5.03;1.38;;;46.90;25.50;;;;;;6204580;28;20046;-78
2022/06/15 07:53:18;;;;;;;5.45;1.80;;;47.10;25.30;;;;;;6204504;28;20042;-78
2022/06/15 07:56:20;;;;;;;9.13;1.30;;;47.10;25.30;;;;;;6204826;28;20074;-78
2022/06/15 07:59:22;;;;;;;3.97;1.30;;;47.20;25.30;;;;;;6204987;28;20062;-79
2022/06/15 08:02:24;;;;;;;17.35;2.65;;;47.40;25.10;;;;;;6204114;28;20057;-81
2022/06/15 08:05:27;;;;;;;3.33;1.50;;;47.30;25.20;;;;;;6206158;28;20042;-81
2022/06/15 08:08:32;;;;;;;3.65;1.40;;;47.10;25.20;;;;;;6204684;28;20046;-81
2022/06/15 08:11:33;;;;;;;2.00;0.85;;;47.20;25.30;;;;;;6204776;28;20085;-81
2022/06/15 08:14:38;;;;;;;2.22;0.82;;;47.30;25.20;;;;;;6204201;28;20042;-81
2022/06/15 08:17:43;;;;;;;10.10;1.60;;;47.60;25.20;;;;;;6204104;28;20054;-81
2022/06/15 08:20:48;;;;;;;2.90;1.10;;;47.60;25.00;;;;;;6204745;28;20046;-81
2022/06/15 08:23:54;;;;;;;6.25;1.08;;;47.70;24.80;;;;;;6204028;28;20050;-81
2022/06/15 08:26:56;;;;;;;5.70;1.63;;;47.80;24.90;;;;;;6204327;28;20451;-81
2022/06/15 08:29:58;;;;;;;9.75;1.65;;;47.80;24.90;;;;;;6203461;28;20053;-81
2022/06/15 08:32:59;;;;;;;6.80;1.38;;;47.70;24.90;;;;;;6204070;28;20046;-81
2022/06/15 08:36:01;;;;;;;3.58;1.38;;;47.80;24.90;;;;;;6196734;28;20047;-81
2022/06/15 08:39:05;;;;;;;3.80;1.30;;;47.80;24.80;;;;;;6186064;28;20411;-78
2022/06/15 08:42:17;;;;;;;5.82;1.70;;;47.80;24.50;;;;;;6212695;28;20047;-81
2022/06/15 08:45:26;;;;;;;2.65;1.10;;;46.00;24.90;;;;;;6208112;28;20042;-80
2022/06/15 08:48:45;;;;;;;6.55;1.20;;;43.00;26.40;;;;;;6204476;28;20109;-84
2022/06/15 08:51:55;;;;;;;6.10;1.27;;;40.50;27.50;;;;;;6209812;28;20046;-84
2022/06/15 08:55:01;;;;;;;2.28;1.15;;;38.60;28.80;;;;;;6211486;28;20054;-84
2022/06/15 08:58:12;;;;;;;3.90;1.20;;;37.20;29.70;;;;;;6213833;28;20054;-83
2022/06/15 09:01:27;;;;;;;2.15;1.17;;;36.20;30.40;;;;;;6211773;28;20042;-82
2022/06/15 09:04:38;;;;;;;4.65;1.50;;;35.60;31.40;;;;;;6191247;28;20562;-83
2022/06/15 09:07:56;;;;;;;2.15;1.35;;;35.00;30.90;;;;;;6208190;28;20192;-85
2022/06/15 09:11:09;;;;;;;13.43;1.50;;;34.50;31.90;;;;;;6227479;28;20404;-83
2022/06/15 09:14:35;;;;;;;3.88;1.35;;;34.00;32.40;;;;;;6228269;28;20415;-83
2022/06/15 09:17:38;;;;;;;2.25;1.23;;;33.60;32.60;;;;;;6228457;28;20046;-83
2022/06/15 09:20:45;;;;;;;6.13;1.55;;;33.20;33.70;;;;;;6229259;28;20048;-84
2022/06/15 09:23:50;;;;;;;4.32;1.50;;;32.90;34.70;;;;;;6234058;28;20076;-82
2022/06/15 09:26:57;;;;;;;3.42;1.77;;;32.70;34.40;;;;;;6231168;28;20056;-85
2022/06/15 09:30:05;;;;;;;2.75;1.42;;;32.50;34.90;;;;;;6229242;28;20048;-82
2022/06/15 09:33:13;;;;;;;3.95;1.50;;;32.50;34.90;;;;;;6228071;28;20049;-82
2022/06/15 09:36:19;;;;;;;6.53;1.65;;;32.30;35.00;;;;;;6229298;28;20551;-84
2022/06/15 09:39:21;;;;;;;5.78;1.83;;;32.30;35.60;;;;;;6214230;28;20050;-83
2022/06/15 09:42:31;;;;;;;4.25;1.60;;;32.40;35.40;;;;;;6205947;28;20411;-83
2022/06/15 09:45:39;;;;;;;6.32;1.77;;;32.30;35.70;;;;;;6206026;28;20057;-83
2022/06/15 09:48:55;;;;;;;3.70;1.63;;;32.50;35.80;;;;;;6205686;28;20053;-82
2022/06/15 09:52:06;;;;;;;4.18;1.63;;;32.60;35.60;;;;;;6205495;28;20057;-82
2022/06/15 09:55:13;;;;;;;4.63;1.83;;;32.70;35.30;;;;;;6207743;28;20061;-83
2022/06/15 09:58:19;;;;;;;5.45;2.13;;;32.80;35.30;;;;;;6208215;28;20058;-83
2022/06/15 10:01:22;;;;;;;3.80;1.42;;;32.90;35.00;;;;;;6209074;28;20046;-83
2022/06/15 10:04:27;;;;;;;3.13;1.63;;;32.80;35.30;;;;;;6211046;28;20046;-83
2022/06/15 10:44:54;;;;;;;5.13;1.52;;;35.10;34.30;;;;;;6034033;29;20053;-84
2022/06/15 11:51:50;;;;;;;1.42;0.90;;;38.10;29.70;;;;;;5968049;29;20081;-85
2022/06/15 11:58:58;;;;;;;8.30;1.00;;;37.80;28.90;;;;;;6171405;28;20479;-81
2022/06/15 12:02:33;;;;;;;4.70;1.38;;;37.90;29.10;;;;;;6203260;28;20043;-84
2022/06/15 12:06:42;;;;;;;4.15;0.98;;;38.10;29.00;;;;;;6201494;28;20077;-83
2022/06/15 12:09:56;;;;;;;4.50;0.88;;;38.40;28.40;;;;;;6192179;28;20050;-82
2022/06/15 12:38:11;;;;;;;1.27;0.60;;;39.40;26.90;;;;;;6010747;29;20126;-83
2022/06/15 12:53:08;;;;;;;1.88;0.63;;;39.90;25.70;;;;;;6052031;28;20055;-83
2022/06/15 12:56:22;;;;;;;4.00;0.90;;;40.00;25.80;;;;;;6258318;28;20454;-82
2022/06/15 12:59:34;;;;;;;4.05;0.60;;;39.90;25.90;;;;;;6289381;28;20506;-82
2022/06/15 13:06:44;;;;;;;0.52;0.30;;;40.10;25.00;;;;;;6259052;28;20052;-84
2022/06/15 13:10:24;;;;;;;7.05;0.70;;;40.10;24.30;;;;;;6284490;28;20052;-85
2022/06/15 13:25:16;;;;;;;0.60;0.47;;;40.30;24.90;;;;;;6216756;28;20543;-83
2022/06/15 13:28:25;;;;;;;4.53;0.80;;;40.30;24.60;;;;;;6236230;28;20052;-81
2022/06/15 13:36:10;;;;;;;2.70;0.65;;;40.40;24.20;;;;;;6221582;28;20065;-84
2022/06/15 13:40:14;;;;;;;3.45;0.50;;;40.40;24.40;;;;;;6240027;28;20053;-82
2022/06/15 14:24:06;;;;;;;0.98;0.40;;;40.40;21.90;;;;;;6152609;28;20057;-83
2022/06/15 14:27:55;;;;;;;2.85;0.32;;;40.30;23.70;;;;;;6199585;28;20075;-83
2022/06/15 14:35:53;;;;;;;1.05;0.32;;;40.10;22.50;;;;;;6200836;28;20059;-83
2022/06/15 14:47:42;;;;;;;1.98;0.60;;;40.50;23.20;;;;;;6264724;28;20040;-85
2022/06/15 14:56:01;;;;;;;3.38;0.55;;;40.30;23.90;;;;;;6313805;28;20047;-84
2022/06/15 14:59:12;;;;;;;0.88;0.40;;;40.30;23.60;;;;;;6327917;28;20055;-84
2022/06/15 15:02:15;;;;;;;2.75;0.57;;;40.10;22.90;;;;;;6328731;28;20485;-81
2022/06/15 15:05:23;;;;;;;0.40;0.22;;;40.00;22.20;;;;;;6324349;28;20044;-82
2022/06/15 15:12:11;;;;;;;6.47;0.60;;;40.00;23.00;;;;;;6264060;28;20094;-81
2022/06/15 15:15:15;;;;;;;4.30;0.43;;;39.80;22.50;;;;;;6306673;28;20508;-83
2022/06/15 15:18:22;;;;;;;4.75;0.25;;;39.80;20.60;;;;;;6322498;28;20051;-82
2022/06/15 15:21:29;;;;;;;2.67;0.47;;;39.80;21.10;;;;;;6328191;28;20051;-82
2022/06/15 15:24:33;;;;;;;2.33;0.43;;;39.80;22.00;;;;;;6321507;28;20047;-80
2022/06/15 15:35:01;;;;;;;2.50;0.40;;;39.80;22.70;;;;;;6311369;28;20052;-82
2022/06/15 15:38:23;;;;;;;5.32;0.45;;;39.80;22.80;;;;;;6316065;28;20073;-82
2022/06/15 15:41:25;;;;;;;4.15;0.75;;;39.80;22.10;;;;;;6299915;28;20047;-82
2022/06/15 15:44:29;;;;;;;0.73;0.35;;;39.80;22.50;;;;;;6300429;28;20051;-82
2022/06/15 15:47:33;;;;;;;2.08;0.77;;;39.70;21.90;;;;;;6301403;28;20403;-83
2022/06/15 15:50:38;;;;;;;4.10;0.50;;;39.50;22.00;;;;;;6308874;28;20059;-81
2022/06/15 15:53:40;;;;;;;1.33;0.50;;;39.50;22.30;;;;;;6317718;28;20044;-81
2022/06/15 15:56:44;;;;;;;2.47;0.55;;;39.50;22.60;;;;;;6312545;28;20068;-82
2022/06/15 15:59:49;;;;;;;0.73;0.47;;;39.40;22.70;;;;;;6310545;28;20059;-82
2022/06/15 16:02:57;;;;;;;5.10;0.50;;;39.50;23.00;;;;;;6308930;28;20123;-82
2022/06/15 16:06:06;;;;;;;2.78;1.13;;;39.60;22.20;;;;;;6312038;28;20040;-82
2022/06/15 16:09:10;;;;;;;1.95;0.90;;;39.50;22.40;;;;;;6321028;28;20049;-81
2022/06/15 16:12:13;;;;;;;3.47;0.30;;;39.30;23.10;;;;;;6304631;28;20041;-84
2022/06/15 16:15:16;;;;;;;1.33;0.45;;;39.20;23.60;;;;;;6304803;28;20519;-82
2022/06/15 16:18:21;;;;;;;4.95;0.65;;;39.20;23.60;;;;;;6302715;28;20068;-84
2022/06/15 16:21:41;;;;;;;0.82;0.40;;;38.90;24.00;;;;;;6301675;28;20067;-84
2022/06/15 16:24:46;;;;;;;1.50;0.57;;;38.80;24.10;;;;;;6301373;28;20139;-83
2022/06/15 16:27:51;;;;;;;0.93;0.40;;;38.80;24.10;;;;;;6301894;28;20044;-84
2022/06/15 16:30:54;;;;;;;3.05;0.80;;;38.70;24.20;;;;;;6305002;28;20051;-82
2022/06/15 16:33:58;;;;;;;2.15;0.63;;;38.70;24.10;;;;;;6353745;28;20090;-83
2022/06/15 16:37:00;;;;;;;2.85;1.02;;;38.60;24.40;;;;;;6347531;28;20039;-82
2022/06/15 16:40:03;;;;;;;4.20;0.70;;;38.60;24.50;;;;;;6319684;28;20552;-82
2022/06/15 16:43:07;;;;;;;0.70;0.40;;;38.60;24.70;;;;;;6329394;28;20055;-81
2022/06/15 16:49:38;;;;;;;2.17;1.00;;;38.20;25.00;;;;;;6318829;28;20037;-82
2022/06/15 16:52:45;;;;;;;1.60;0.80;;;38.20;25.50;;;;;;6328055;28;20054;-82
2022/06/15 16:55:54;;;;;;;2.85;0.82;;;38.00;25.80;;;;;;6314920;28;20131;-83
2022/06/15 16:58:57;;;;;;;4.40;0.70;;;38.00;26.10;;;;;;6329357;28;20048;-81
2022/06/15 17:01:59;;;;;;;4.45;0.88;;;37.90;25.90;;;;;;6327239;28;20040;-83
2022/06/15 17:05:05;;;;;;;2.15;0.68;;;38.00;25.90;;;;;;6325735;28;20040;-82
2022/06/15 17:08:07;;;;;;;1.85;0.70;;;38.00;26.00;;;;;;6325598;28;20125;-83
2022/06/15 17:11:11;;;;;;;1.50;0.82;;;37.90;26.20;;;;;;6330415;28;20093;-84
2022/06/15 17:14:14;;;;;;;1.33;0.75;;;37.80;26.60;;;;;;6329783;28;20052;-84
2022/06/15 17:17:16;;;;;;;1.58;0.73;;;37.60;26.80;;;;;;6330667;28;20048;-84
2022/06/15 17:20:19;;;;;;;2.55;1.27;;;37.40;26.70;;;;;;6350903;28;20059;-84
2022/06/15 17:23:22;;;;;;;1.27;0.60;;;37.20;27.00;;;;;;6355870;28;20059;-83
2022/06/15 17:26:24;;;;;;;3.25;1.00;;;36.90;27.20;;;;;;6354297;28;20051;-83
2022/06/15 17:29:27;;;;;;;3.75;0.75;;;36.60;27.30;;;;;;6354759;28;20047;-82
2022/06/15 17:32:29;;;;;;;4.60;1.20;;;36.40;27.60;;;;;;6355049;28;20054;-84
2022/06/15 17:35:34;;;;;;;3.08;0.70;;;36.10;28.00;;;;;;6354780;28;20044;-82
2022/06/15 17:38:35;;;;;;;4.35;1.00;;;35.80;28.20;;;;;;6354186;28;20048;-82
2022/06/15 17:41:46;;;;;;;1.80;0.80;;;35.60;28.50;;;;;;6342039;28;20464;-83
2022/06/15 17:44:48;;;;;;;2.13;0.93;;;35.30;28.40;;;;;;6328891;28;20046;-82
2022/06/15 17:47:50;;;;;;;9.38;0.90;;;35.10;28.60;;;;;;6330208;28;20481;-82
2022/06/15 17:50:54;;;;;;;2.38;1.00;;;34.80;30.00;;;;;;6329967;28;20044;-82
2022/06/15 17:53:55;;;;;;;2.67;1.48;;;34.50;29.70;;;;;;6331756;28;20040;-82
2022/06/15 17:56:57;;;;;;;3.83;0.82;;;34.40;30.30;;;;;;6330071;28;20050;-82
2022/06/15 17:59:59;;;;;;;6.43;4.47;;;34.20;30.50;;;;;;6328450;28;20503;-82
2022/06/15 18:03:02;;;;;;;5.63;3.38;;;34.00;31.30;;;;;;6329976;28;20056;-84
2022/06/15 18:06:07;;;;;;;11.43;1.73;;;33.90;31.70;;;;;;6318177;28;20044;-82
2022/06/15 18:09:09;;;;;;;5.15;1.65;;;33.70;32.40;;;;;;6327517;28;20687;-83
2022/06/15 18:12:12;;;;;;;3.22;0.95;;;33.50;33.00;;;;;;6329101;28;20062;-82
2022/06/15 18:15:17;;;;;;;10.07;1.50;;;33.40;33.80;;;;;;6329515;28;20048;-82
2022/06/15 18:18:19;;;;;;;3.10;1.55;;;33.20;34.40;;;;;;6327925;28;20044;-81
2022/06/15 18:21:26;;;;;;;6.53;1.80;;;33.00;34.60;;;;;;6327615;28;20045;-81
2022/06/15 18:24:29;;;;;;;7.28;1.98;;;32.80;35.50;;;;;;6305053;28;20098;-81
2022/06/15 18:27:31;;;;;;;3.78;1.05;;;32.60;36.40;;;;;;6295838;28;20510;-81
2022/06/15 18:30:33;;;;;;;2.95;1.13;;;32.40;36.90;;;;;;6296168;28;20044;-81
2022/06/15 18:33:36;;;;;;;2.97;1.20;;;32.20;37.20;;;;;;6298363;28;20044;-81
2022/06/15 18:36:41;;;;;;;4.70;0.73;;;32.00;38.40;;;;;;6339435;28;20044;-82
2022/06/15 18:39:44;;;;;;;2.75;1.27;;;31.80;39.20;;;;;;6348166;28;20044;-81
2022/06/15 18:42:48;;;;;;;4.13;1.20;;;31.60;40.00;;;;;;6339144;28;20118;-82
2022/06/15 18:49:12;;;;;;;1.77;1.00;;;31.00;42.10;;;;;;6322701;28;20036;-82
2022/06/15 18:52:16;;;;;;;2.97;1.35;;;30.60;43.20;;;;;;6307175;28;20048;-81
2022/06/15 18:55:21;;;;;;;2.90;1.00;;;30.20;44.20;;;;;;6299813;28;20413;-83
2022/06/15 18:58:23;;;;;;;2.33;1.13;;;29.80;44.80;;;;;;6298294;28;20528;-81
2022/06/15 19:01:27;;;;;;;4.30;1.60;;;29.50;45.70;;;;;;6297784;28;20442;-82
2022/06/15 19:04:32;;;;;;;3.35;1.73;;;29.20;46.50;;;;;;6289521;28;20045;-83
2022/06/15 19:07:35;;;;;;;2.78;1.33;;;29.00;47.40;;;;;;6297646;28;20052;-83
2022/06/15 19:10:40;;;;;;;4.10;1.38;;;28.70;48.50;;;;;;6332678;28;20044;-85
2022/06/15 19:14:18;;;;;;;4.38;1.40;;;28.40;50.00;;;;;;6338941;28;20128;-86
2022/06/15 19:17:26;;;;;;;3.25;1.30;;;28.10;51.20;;;;;;6313494;28;20106;-85
2022/06/15 19:20:29;;;;;;;5.07;1.73;;;27.80;51.60;;;;;;6323288;28;20071;-83
2022/06/15 19:23:32;;;;;;;3.08;1.35;;;27.50;52.70;;;;;;6301246;28;20055;-82
2022/06/15 19:26:40;;;;;;;2.78;1.50;;;27.30;53.70;;;;;;6300544;28;20048;-82
2022/06/15 19:29:42;;;;;;;;;;;27.00;54.30;;;;;;6302552;28;20075;-80
2022/06/15 19:32:44;;;;;;;3.47;1.23;;;26.90;55.00;;;;;;6301697;28;19920;-84
2022/06/15 19:35:46;;;;;;;2.25;1.40;;;26.70;56.20;;;;;;6304288;28;20056;-82
2022/06/15 19:38:49;;;;;;;2.90;1.50;;;26.50;57.50;;;;;;6303344;28;20055;-81
2022/06/15 19:41:51;;;;;;;2.08;1.42;;;26.30;58.80;;;;;;6302942;28;20052;-81
2022/06/15 19:44:53;;;;;;;5.45;1.73;;;26.00;60.20;;;;;;6302577;28;20674;-81
2022/06/15 19:47:55;;;;;;;3.35;2.00;;;25.90;61.50;;;;;;6304441;28;20054;-80
2022/06/15 19:50:58;;;;;;;4.53;1.40;;;25.80;62.70;;;;;;6327663;28;20044;-79
2022/06/15 19:54:02;;;;;;;3.22;1.60;;;25.60;63.80;;;;;;6327561;28;20093;-79
2022/06/15 19:57:05;;;;;;;4.60;1.65;;;25.40;65.50;;;;;;6327748;28;20053;-80
2022/06/15 20:00:08;;;;;;;7.72;2.08;;;25.20;66.80;;;;;;6311634;28;20059;-82
2022/06/15 20:03:10;;;;;;;4.55;1.98;;;25.10;68.30;;;;;;6326809;28;20036;-79
2022/06/15 20:06:12;;;;;;;3.30;1.73;;;24.90;69.60;;;;;;6326608;28;20047;-80
2022/06/15 20:09:15;;;;;;;3.15;1.42;;;24.80;70.70;;;;;;6325377;28;20036;-85